sensor_id;sensor_type;location;lat;lon;timestamp;pressure;altitude;pressure_sealevel;temperature;humidity
31357;BME280;60001;48.404;11.738;2023-07-20T00:01:28;96060.44;;;23.19;61.78
31357;BME280;60001;48.404;11.738;2023-07-20T00:03:10;96056.97;;;23.19;61.59
31357;BME280;60001;48.404;11.738;2023-07-20T00:04:43;96058.88;;;23.18;61.42
31357;BME280;60001;48.404;11.738;2023-07-20T00:06:14;96065.13;;;23.22;61.15
31357;BME280;60001;48.404;11.738;2023-07-20T00:07:46;96068.97;;;23.21;61.18
31357;BME280;60001;48.404;11.738;2023-07-20T00:09:22;96059.44;;;23.24;60.52
31357;BME280;60001;48.404;11.738;2023-07-20T00:10:53;96069.44;;;23.23;59.80
31357;BME280;60001;48.404;11.738;2023-07-20T00:12:24;96072.22;;;23.27;59.88
31357;BME280;60001;48.404;11.738;2023-07-20T00:13:55;96065.69;;;23.28;60.02
31357;BME280;60001;48.404;11.738;2023-07-20T00:15:27;96064.47;;;23.25;60.79
31357;BME280;60001;48.404;11.738;2023-07-20T00:16:57;96066.75;;;23.23;60.26
31357;BME280;60001;48.404;11.738;2023-07-20T00:18:29;96064.25;;;23.18;60.92
31357;BME280;60001;48.404;11.738;2023-07-20T00:20:00;96066.53;;;23.16;61.14
31357;BME280;60001;48.404;11.738;2023-07-20T00:21:31;96060.22;;;23.12;61.54
31357;BME280;60001;48.404;11.738;2023-07-20T00:23:03;96065.63;;;23.12;61.18
31357;BME280;60001;48.404;11.738;2023-07-20T00:24:35;96062.91;;;23.12;61.10
31357;BME280;60001;48.404;11.738;2023-07-20T00:26:06;96063.25;;;23.11;60.78
31357;BME280;60001;48.404;11.738;2023-07-20T00:27:38;96064.94;;;23.15;60.29
31357;BME280;60001;48.404;11.738;2023-07-20T00:29:08;96064.94;;;23.15;60.65
31357;BME280;60001;48.404;11.738;2023-07-20T00:30:40;96067.97;;;23.14;60.54
31357;BME280;60001;48.404;11.738;2023-07-20T00:32:11;96060.56;;;23.11;60.70
31357;BME280;60001;48.404;11.738;2023-07-20T00:33:43;96070.78;;;23.17;59.92
31357;BME280;60001;48.404;11.738;2023-07-20T00:35:14;96056.19;;;23.18;59.69
31357;BME280;60001;48.404;11.738;2023-07-20T00:36:45;96067.31;;;23.17;59.65
31357;BME280;60001;48.404;11.738;2023-07-20T00:38:17;96070.22;;;23.12;59.36
31357;BME280;60001;48.404;11.738;2023-07-20T00:39:49;96080.88;;;23.08;59.83
31357;BME280;60001;48.404;11.738;2023-07-20T00:41:20;96082.78;;;23.08;59.40
31357;BME280;60001;48.404;11.738;2023-07-20T00:42:51;96078.06;;;23.05;59.73
31357;BME280;60001;48.404;11.738;2023-07-20T00:44:22;96075.72;;;23.03;59.58
31357;BME280;60001;48.404;11.738;2023-07-20T00:45:55;96074.47;;;23.01;59.54
31357;BME280;60001;48.404;11.738;2023-07-20T00:47:27;96075.94;;;22.98;59.20
31357;BME280;60001;48.404;11.738;2023-07-20T00:48:59;96072.91;;;23.00;59.26
31357;BME280;60001;48.404;11.738;2023-07-20T00:50:31;96080.19;;;22.99;58.98
31357;BME280;60001;48.404;11.738;2023-07-20T00:52:06;96073.25;;;22.98;58.72
31357;BME280;60001;48.404;11.738;2023-07-20T00:53:39;96072.47;;;22.97;58.72
31357;BME280;60001;48.404;11.738;2023-07-20T00:55:11;96078.28;;;23.00;58.94
31357;BME280;60001;48.404;11.738;2023-07-20T00:56:44;96071.25;;;22.95;58.87
31357;BME280;60001;48.404;11.738;2023-07-20T00:58:15;96077.94;;;23.01;59.19
31357;BME280;60001;48.404;11.738;2023-07-20T00:59:46;96071.78;;;23.01;59.04
31357;BME280;60001;48.404;11.738;2023-07-20T01:01:17;96072.47;;;22.97;59.08
31357;BME280;60001;48.404;11.738;2023-07-20T01:02:49;96071.25;;;22.95;58.98
31357;BME280;60001;48.404;11.738;2023-07-20T01:04:20;96068.41;;;22.91;59.47
31357;BME280;60001;48.404;11.738;2023-07-20T01:06:02;96074.16;;;22.90;58.72
31357;BME280;60001;48.404;11.738;2023-07-20T01:07:40;96062.47;;;22.86;59.04
31357;BME280;60001;48.404;11.738;2023-07-20T01:09:19;96073.38;;;22.89;59.05
31357;BME280;60001;48.404;11.738;2023-07-20T01:10:55;96068.41;;;22.91;59.13
31357;BME280;60001;48.404;11.738;2023-07-20T01:12:35;96064.94;;;22.91;58.83
31357;BME280;60001;48.404;11.738;2023-07-20T01:14:12;96071.78;;;22.88;58.73
31357;BME280;60001;48.404;11.738;2023-07-20T01:15:49;96066.84;;;22.90;58.88
31357;BME280;60001;48.404;11.738;2023-07-20T01:17:21;96066.06;;;22.90;58.49
31357;BME280;60001;48.404;11.738;2023-07-20T01:18:52;96067.63;;;22.91;58.75
31357;BME280;60001;48.404;11.738;2023-07-20T01:20:24;96061.13;;;22.92;58.38
31357;BME280;60001;48.404;11.738;2023-07-20T01:21:59;96066.50;;;22.92;58.29
31357;BME280;60001;48.404;11.738;2023-07-20T01:24:04;96070.34;;;22.91;58.14
31357;BME280;60001;48.404;11.738;2023-07-20T01:25:58;96071.47;;;22.90;57.90
31357;BME280;60001;48.404;11.738;2023-07-20T01:27:59;96069.28;;;22.83;58.12
31357;BME280;60001;48.404;11.738;2023-07-20T01:30:03;96071.19;;;22.83;58.64
31357;BME280;60001;48.404;11.738;2023-07-20T01:31:42;96065.34;;;22.81;58.22
31357;BME280;60001;48.404;11.738;2023-07-20T01:33:16;96066.03;;;22.78;57.87
31357;BME280;60001;48.404;11.738;2023-07-20T01:34:51;96063.22;;;22.74;58.32
31357;BME280;60001;48.404;11.738;2023-07-20T01:36:24;96065.13;;;22.74;58.97
31357;BME280;60001;48.404;11.738;2023-07-20T01:37:59;96064.03;;;22.75;58.50
31357;BME280;60001;48.404;11.738;2023-07-20T01:39:32;96062.56;;;22.77;58.38
31357;BME280;60001;48.404;11.738;2023-07-20T01:41:05;96065.25;;;22.77;58.17
31357;BME280;60001;48.404;11.738;2023-07-20T01:42:36;96069.94;;;22.80;58.05
31357;BME280;60001;48.404;11.738;2023-07-20T01:44:08;96060.31;;;22.79;57.92
31357;BME280;60001;48.404;11.738;2023-07-20T01:45:40;96068.38;;;22.79;57.99
31357;BME280;60001;48.404;11.738;2023-07-20T01:47:12;96071.19;;;22.83;58.15
31357;BME280;60001;48.404;11.738;2023-07-20T01:48:44;96061.88;;;22.80;57.75
31357;BME280;60001;48.404;11.738;2023-07-20T01:50:15;96072.31;;;22.82;57.74
31357;BME280;60001;48.404;11.738;2023-07-20T01:51:46;96067.38;;;22.84;57.83
31357;BME280;60001;48.404;11.738;2023-07-20T01:53:17;96067.38;;;22.84;57.92
31357;BME280;60001;48.404;11.738;2023-07-20T01:54:49;96072.31;;;22.82;57.80
31357;BME280;60001;48.404;11.738;2023-07-20T01:56:20;96072.19;;;22.78;57.81
31357;BME280;60001;48.404;11.738;2023-07-20T01:57:52;96067.72;;;22.82;57.86
31357;BME280;60001;48.404;11.738;2023-07-20T01:59:22;96076.59;;;22.83;57.51
31357;BME280;60001;48.404;11.738;2023-07-20T02:00:54;96071.53;;;22.81;56.87
31357;BME280;60001;48.404;11.738;2023-07-20T02:02:27;96071.97;;;22.83;57.07
31357;BME280;60001;48.404;11.738;2023-07-20T02:03:59;96072.91;;;22.87;57.17
31357;BME280;60001;48.404;11.738;2023-07-20T02:05:30;96074.81;;;22.87;57.12
31357;BME280;60001;48.404;11.738;2023-07-20T02:07:02;96077.03;;;22.85;57.38
31357;BME280;60001;48.404;11.738;2023-07-20T02:08:33;96076.78;;;22.78;57.00
31357;BME280;60001;48.404;11.738;2023-07-20T02:10:05;96071.75;;;22.76;57.13
31357;BME280;60001;48.404;11.738;2023-07-20T02:11:37;96089.13;;;22.79;56.99
31357;BME280;60001;48.404;11.738;2023-07-20T02:13:09;96077.91;;;22.77;57.37
31357;BME280;60001;48.404;11.738;2023-07-20T02:14:41;96075.88;;;22.74;57.54
31357;BME280;60001;48.404;11.738;2023-07-20T02:16:12;96080.38;;;22.69;57.30
31357;BME280;60001;48.404;11.738;2023-07-20T02:17:45;96070.94;;;22.63;57.33
31357;BME280;60001;48.404;11.738;2023-07-20T02:19:17;96073.28;;;22.65;57.17
31357;BME280;60001;48.404;11.738;2023-07-20T02:20:48;96072.16;;;22.66;56.62
31357;BME280;60001;48.404;11.738;2023-07-20T02:22:19;96074.09;;;22.65;56.97
31357;BME280;60001;48.404;11.738;2023-07-20T02:23:50;96081.38;;;22.65;56.40
31357;BME280;60001;48.404;11.738;2023-07-20T02:25:22;96074.88;;;22.66;56.43
31357;BME280;60001;48.404;11.738;2023-07-20T02:26:52;96086.97;;;22.72;55.71
31357;BME280;60001;48.404;11.738;2023-07-20T02:28:24;96089.03;;;22.75;55.04
31357;BME280;60001;48.404;11.738;2023-07-20T02:29:55;96082.06;;;22.74;55.33
31357;BME280;60001;48.404;11.738;2023-07-20T02:31:26;96080.38;;;22.69;54.81
31357;BME280;60001;48.404;11.738;2023-07-20T02:32:58;96090.16;;;22.74;54.57
31357;BME280;60001;48.404;11.738;2023-07-20T02:34:30;96081.41;;;22.77;53.80
31357;BME280;60001;48.404;11.738;2023-07-20T02:36:01;96082.19;;;22.78;52.73
31357;BME280;60001;48.404;11.738;2023-07-20T02:37:32;96077.22;;;22.80;52.54
31357;BME280;60001;48.404;11.738;2023-07-20T02:39:03;96081.84;;;22.79;52.65
31357;BME280;60001;48.404;11.738;2023-07-20T02:40:35;96086.44;;;22.79;52.27
31357;BME280;60001;48.404;11.738;2023-07-20T02:42:07;96080.59;;;22.77;51.74
31357;BME280;60001;48.404;11.738;2023-07-20T02:43:38;96086.09;;;22.80;52.25
31357;BME280;60001;48.404;11.738;2023-07-20T02:45:09;96093.72;;;22.78;52.41
31357;BME280;60001;48.404;11.738;2023-07-20T02:46:41;96093.06;;;22.81;51.39
31357;BME280;60001;48.404;11.738;2023-07-20T02:48:14;96089.56;;;22.81;51.64
31357;BME280;60001;48.404;11.738;2023-07-20T02:49:45;96089.81;;;22.76;51.30
31357;BME280;60001;48.404;11.738;2023-07-20T02:51:16;96084.19;;;22.68;51.38
31357;BME280;60001;48.404;11.738;2023-07-20T02:52:48;96087.22;;;22.67;51.14
31357;BME280;60001;48.404;11.738;2023-07-20T02:54:19;96087.22;;;22.67;51.26
31357;BME280;60001;48.404;11.738;2023-07-20T02:55:50;96089.00;;;22.63;51.17
31357;BME280;60001;48.404;11.738;2023-07-20T02:57:21;96090.00;;;22.58;51.31
31357;BME280;60001;48.404;11.738;2023-07-20T02:58:53;96089.22;;;22.58;51.63
31357;BME280;60001;48.404;11.738;2023-07-20T03:00:24;96095.94;;;22.64;50.83
31357;BME280;60001;48.404;11.738;2023-07-20T03:01:55;96100.53;;;22.63;51.43
31357;BME280;60001;48.404;11.738;2023-07-20T03:03:29;96100.53;;;22.63;51.37
31357;BME280;60001;48.404;11.738;2023-07-20T03:05:01;96093.25;;;22.64;50.91
31357;BME280;60001;48.404;11.738;2023-07-20T03:06:32;96100.88;;;22.62;50.52
31357;BME280;60001;48.404;11.738;2023-07-20T03:08:06;96101.00;;;22.65;50.07
31357;BME280;60001;48.404;11.738;2023-07-20T03:09:38;96112.22;;;22.67;48.88
31357;BME280;60001;48.404;11.738;2023-07-20T03:11:09;96108.63;;;22.63;49.05
31357;BME280;60001;48.404;11.738;2023-07-20T03:12:41;96110.97;;;22.65;49.62
31357;BME280;60001;48.404;11.738;2023-07-20T03:14:12;96104.47;;;22.66;49.71
31357;BME280;60001;48.404;11.738;2023-07-20T03:15:44;96099.75;;;22.63;48.81
31357;BME280;60001;48.404;11.738;2023-07-20T03:17:15;96101.00;;;22.65;48.67
31357;BME280;60001;48.404;11.738;2023-07-20T03:18:48;96103.38;;;22.67;48.12
31357;BME280;60001;48.404;11.738;2023-07-20T03:20:18;96105.59;;;22.65;48.07
31357;BME280;60001;48.404;11.738;2023-07-20T03:21:50;96102.00;;;22.61;48.54
31357;BME280;60001;48.404;11.738;2023-07-20T03:23:22;96089.31;;;22.49;48.67
31357;BME280;60001;48.404;11.738;2023-07-20T03:24:52;96103.78;;;22.57;48.73
31357;BME280;60001;48.404;11.738;2023-07-20T03:26:24;96105.25;;;22.54;49.25
31357;BME280;60001;48.404;11.738;2023-07-20T03:27:55;96100.06;;;22.49;49.27
31357;BME280;60001;48.404;11.738;2023-07-20T03:29:27;96105.25;;;22.54;48.49
31357;BME280;60001;48.404;11.738;2023-07-20T03:30:57;96104.66;;;22.49;48.34
31357;BME280;60001;48.404;11.738;2023-07-20T03:32:29;96108.72;;;22.55;48.63
31357;BME280;60001;48.404;11.738;2023-07-20T03:34:01;96114.22;;;22.58;48.58
31357;BME280;60001;48.404;11.738;2023-07-20T03:35:33;96114.22;;;22.58;48.48
31357;BME280;60001;48.404;11.738;2023-07-20T03:37:04;96118.38;;;22.56;48.80
31357;BME280;60001;48.404;11.738;2023-07-20T03:38:36;96110.50;;;22.51;48.60
31357;BME280;60001;48.404;11.738;2023-07-20T03:40:08;96109.47;;;22.43;49.37
31357;BME280;60001;48.404;11.738;2023-07-20T03:41:40;96110.94;;;22.40;49.48
31357;BME280;60001;48.404;11.738;2023-07-20T03:43:11;96119.66;;;22.37;49.71
31357;BME280;60001;48.404;11.738;2023-07-20T03:44:42;96114.16;;;22.34;49.74
31357;BME280;60001;48.404;11.738;2023-07-20T03:46:14;96116.94;;;22.37;49.06
31357;BME280;60001;48.404;11.738;2023-07-20T03:47:45;96119.78;;;22.41;48.78
31357;BME280;60001;48.404;11.738;2023-07-20T03:49:20;96109.81;;;22.41;49.01
31357;BME280;60001;48.404;11.738;2023-07-20T03:50:51;96116.06;;;22.46;48.56
31357;BME280;60001;48.404;11.738;2023-07-20T03:52:24;96121.16;;;22.47;48.95
31357;BME280;60001;48.404;11.738;2023-07-20T03:53:54;96125.84;;;22.50;48.98
31357;BME280;60001;48.404;11.738;2023-07-20T03:55:26;96124.72;;;22.51;47.86
31357;BME280;60001;48.404;11.738;2023-07-20T03:56:57;96131.44;;;22.45;47.99
31357;BME280;60001;48.404;11.738;2023-07-20T03:58:29;96130.00;;;22.48;48.30
31357;BME280;60001;48.404;11.738;2023-07-20T04:00:00;96136.03;;;22.44;48.62
31357;BME280;60001;48.404;11.738;2023-07-20T04:01:32;96127.19;;;22.44;48.15
31357;BME280;60001;48.404;11.738;2023-07-20T04:03:07;96128.75;;;22.45;47.87
31357;BME280;60001;48.404;11.738;2023-07-20T04:04:40;96132.22;;;22.46;48.03
31357;BME280;60001;48.404;11.738;2023-07-20T04:06:10;96135.25;;;22.44;47.55
31357;BME280;60001;48.404;11.738;2023-07-20T04:07:42;96122.81;;;22.39;47.57
31357;BME280;60001;48.404;11.738;2023-07-20T04:09:13;96132.56;;;22.44;47.66
31357;BME280;60001;48.404;11.738;2023-07-20T04:10:45;96129.41;;;22.42;47.99
31357;BME280;60001;48.404;11.738;2023-07-20T04:12:15;96134.13;;;22.45;48.06
31357;BME280;60001;48.404;11.738;2023-07-20T04:13:47;96132.69;;;22.48;47.41
31357;BME280;60001;48.404;11.738;2023-07-20T04:15:19;96127.97;;;22.44;47.01
31357;BME280;60001;48.404;11.738;2023-07-20T04:16:49;96137.16;;;22.43;47.11
31357;BME280;60001;48.404;11.738;2023-07-20T04:18:21;96135.00;;;22.37;46.75
31357;BME280;60001;48.404;11.738;2023-07-20T04:19:53;96133.88;;;22.38;47.38
31357;BME280;60001;48.404;11.738;2023-07-20T04:21:28;96142.72;;;22.38;46.69
31357;BME280;60001;48.404;11.738;2023-07-20T04:22:59;96143.53;;;22.39;45.33
31357;BME280;60001;48.404;11.738;2023-07-20T04:24:30;96141.94;;;22.38;45.66
31357;BME280;60001;48.404;11.738;2023-07-20T04:26:01;96136.13;;;22.36;45.56
31357;BME280;60001;48.404;11.738;2023-07-20T04:27:33;96140.97;;;22.42;45.01
31357;BME280;60001;48.404;11.738;2023-07-20T04:29:04;96137.81;;;22.40;45.06
31357;BME280;60001;48.404;11.738;2023-07-20T04:30:35;96146.78;;;22.32;44.87
31357;BME280;60001;48.404;11.738;2023-07-20T04:32:07;96141.78;;;22.22;45.08
31357;BME280;60001;48.404;11.738;2023-07-20T04:33:39;96144.81;;;22.21;45.09
31357;BME280;60001;48.404;11.738;2023-07-20T04:35:18;96145.41;;;22.26;45.06
31357;BME280;60001;48.404;11.738;2023-07-20T04:36:50;96150.09;;;22.29;45.22
31357;BME280;60001;48.404;11.738;2023-07-20T04:38:21;96147.41;;;22.29;45.52
31357;BME280;60001;48.404;11.738;2023-07-20T04:39:53;96142.81;;;22.30;45.18
31357;BME280;60001;48.404;11.738;2023-07-20T04:41:23;96155.41;;;22.38;45.44
31357;BME280;60001;48.404;11.738;2023-07-20T04:42:55;96153.84;;;22.37;45.41
31357;BME280;60001;48.404;11.738;2023-07-20T04:44:26;96150.34;;;22.36;44.66
31357;BME280;60001;48.404;11.738;2023-07-20T04:45:58;96152.25;;;22.36;45.82
31357;BME280;60001;48.404;11.738;2023-07-20T04:47:28;96152.41;;;22.39;45.43
31357;BME280;60001;48.404;11.738;2023-07-20T04:49:00;96148.59;;;22.40;45.29
31357;BME280;60001;48.404;11.738;2023-07-20T04:50:33;96151.59;;;22.39;45.16
31357;BME280;60001;48.404;11.738;2023-07-20T04:52:05;96159.34;;;22.40;44.92
31357;BME280;60001;48.404;11.738;2023-07-20T04:53:37;96145.31;;;22.35;44.85
31357;BME280;60001;48.404;11.738;2023-07-20T04:55:08;96157.78;;;22.39;44.10
31357;BME280;60001;48.404;11.738;2023-07-20T04:56:39;96155.53;;;22.41;44.45
31357;BME280;60001;48.404;11.738;2023-07-20T04:58:11;96164.72;;;22.40;44.95
31357;BME280;60001;48.404;11.738;2023-07-20T04:59:42;96160.34;;;22.36;44.17
31357;BME280;60001;48.404;11.738;2023-07-20T05:01:14;96167.38;;;22.28;45.09
31357;BME280;60001;48.404;11.738;2023-07-20T05:02:45;96162.00;;;22.28;45.09
31357;BME280;60001;48.404;11.738;2023-07-20T05:04:19;96165.31;;;22.25;45.60
31357;BME280;60001;48.404;11.738;2023-07-20T05:05:51;96172.59;;;22.25;45.54
31357;BME280;60001;48.404;11.738;2023-07-20T05:07:23;96163.88;;;22.28;44.95
31357;BME280;60001;48.404;11.738;2023-07-20T05:08:53;96162.09;;;22.32;45.04
31357;BME280;60001;48.404;11.738;2023-07-20T05:10:25;96170.50;;;22.30;45.21
31357;BME280;60001;48.404;11.738;2023-07-20T05:11:56;96162.91;;;22.32;45.20
31357;BME280;60001;48.404;11.738;2023-07-20T05:13:28;96170.31;;;22.35;45.46
31357;BME280;60001;48.404;11.738;2023-07-20T05:14:59;96163.81;;;22.36;45.00
31357;BME280;60001;48.404;11.738;2023-07-20T05:16:30;96161.25;;;22.40;44.80
31357;BME280;60001;48.404;11.738;2023-07-20T05:18:02;96162.50;;;22.42;44.17
31357;BME280;60001;48.404;11.738;2023-07-20T05:19:33;96171.69;;;22.41;43.96
31357;BME280;60001;48.404;11.738;2023-07-20T05:21:06;96169.31;;;22.40;44.38
31357;BME280;60001;48.404;11.738;2023-07-20T05:22:38;96163.47;;;22.38;44.48
31357;BME280;60001;48.404;11.738;2023-07-20T05:24:11;96169.19;;;22.36;44.66
31357;BME280;60001;48.404;11.738;2023-07-20T05:25:42;96168.84;;;22.38;44.40
31357;BME280;60001;48.404;11.738;2023-07-20T05:27:13;96171.09;;;22.36;45.36
31357;BME280;60001;48.404;11.738;2023-07-20T05:28:44;96175.53;;;22.32;44.87
31357;BME280;60001;48.404;11.738;2023-07-20T05:30:16;96167.38;;;22.28;44.53
31357;BME280;60001;48.404;11.738;2023-07-20T05:31:46;96171.50;;;22.26;45.19
31357;BME280;60001;48.404;11.738;2023-07-20T05:33:18;96168.34;;;22.24;45.26
31357;BME280;60001;48.404;11.738;2023-07-20T05:34:51;96174.66;;;22.28;45.31
31357;BME280;60001;48.404;11.738;2023-07-20T05:36:24;96169.84;;;22.33;45.13
31357;BME280;60001;48.404;11.738;2023-07-20T05:37:55;96175.88;;;22.30;45.44
31357;BME280;60001;48.404;11.738;2023-07-20T05:39:27;96170.38;;;22.27;45.46
31357;BME280;60001;48.404;11.738;2023-07-20T05:40:59;96172.75;;;22.28;44.98
31357;BME280;60001;48.404;11.738;2023-07-20T05:42:32;96176.22;;;22.29;45.66
31357;BME280;60001;48.404;11.738;2023-07-20T05:44:03;96175.78;;;22.27;45.47
31357;BME280;60001;48.404;11.738;2023-07-20T05:45:35;96176.38;;;22.32;45.00
31357;BME280;60001;48.404;11.738;2023-07-20T05:47:06;96175.09;;;22.30;45.43
31357;BME280;60001;48.404;11.738;2023-07-20T05:48:38;96182.38;;;22.29;45.60
31357;BME280;60001;48.404;11.738;2023-07-20T05:50:09;96185.53;;;22.31;45.55
31357;BME280;60001;48.404;11.738;2023-07-20T05:51:42;96191.03;;;22.35;44.88
31357;BME280;60001;48.404;11.738;2023-07-20T05:53:13;96185.53;;;22.31;44.26
31357;BME280;60001;48.404;11.738;2023-07-20T05:54:45;96188.09;;;22.28;44.83
31357;BME280;60001;48.404;11.738;2023-07-20T05:56:15;96187.66;;;22.26;45.57
31357;BME280;60001;48.404;11.738;2023-07-20T05:57:47;96187.16;;;22.24;45.46
31357;BME280;60001;48.404;11.738;2023-07-20T05:59:19;96188.75;;;22.25;46.24
31357;BME280;60001;48.404;11.738;2023-07-20T06:00:50;96193.94;;;22.30;46.19
31357;BME280;60001;48.404;11.738;2023-07-20T06:02:21;96192.03;;;22.30;46.05
31357;BME280;60001;48.404;11.738;2023-07-20T06:03:53;96188.88;;;22.28;45.72
31357;BME280;60001;48.404;11.738;2023-07-20T06:05:24;96190.44;;;22.29;45.72
31357;BME280;60001;48.404;11.738;2023-07-20T06:06:57;96186.06;;;22.25;45.63
31357;BME280;60001;48.404;11.738;2023-07-20T06:08:28;96191.69;;;22.32;45.06
31357;BME280;60001;48.404;11.738;2023-07-20T06:10:00;96193.75;;;22.35;44.41
31357;BME280;60001;48.404;11.738;2023-07-20T06:11:31;96198.31;;;22.34;45.44
31357;BME280;60001;48.404;11.738;2023-07-20T06:13:02;96198.78;;;22.36;45.47
31357;BME280;60001;48.404;11.738;2023-07-20T06:14:34;96199.38;;;22.42;45.59
31357;BME280;60001;48.404;11.738;2023-07-20T06:16:05;96205.19;;;22.44;44.56
31357;BME280;60001;48.404;11.738;2023-07-20T06:17:36;96208.56;;;22.41;44.35
31357;BME280;60001;48.404;11.738;2023-07-20T06:19:08;96199.22;;;22.38;44.67
31357;BME280;60001;48.404;11.738;2023-07-20T06:20:41;96200.81;;;22.39;44.91
31357;BME280;60001;48.404;11.738;2023-07-20T06:22:14;96202.84;;;22.42;45.04
31357;BME280;60001;48.404;11.738;2023-07-20T06:23:46;96204.22;;;22.49;45.29
31357;BME280;60001;48.404;11.738;2023-07-20T06:25:18;96204.47;;;22.56;44.56
31357;BME280;60001;48.404;11.738;2023-07-20T06:26:48;96207.03;;;22.52;44.14
31357;BME280;60001;48.404;11.738;2023-07-20T06:28:20;96199.63;;;22.49;44.09
31357;BME280;60001;48.404;11.738;2023-07-20T06:29:51;96198.38;;;22.47;44.05
31357;BME280;60001;48.404;11.738;2023-07-20T06:31:22;96185.91;;;22.42;44.91
31357;BME280;60001;48.404;11.738;2023-07-20T06:32:53;96189.50;;;22.46;45.00
31357;BME280;60001;48.404;11.738;2023-07-20T06:34:25;96195.38;;;22.48;44.95
31357;BME280;60001;48.404;11.738;2023-07-20T06:35:57;96197.91;;;22.44;44.76
31357;BME280;60001;48.404;11.738;2023-07-20T06:37:30;96195.38;;;22.48;45.26
31357;BME280;60001;48.404;11.738;2023-07-20T06:39:01;96195.38;;;22.48;44.97
31357;BME280;60001;48.404;11.738;2023-07-20T06:40:33;96195.13;;;22.41;45.51
31357;BME280;60001;48.404;11.738;2023-07-20T06:42:06;96190.19;;;22.43;46.11
31357;BME280;60001;48.404;11.738;2023-07-20T06:43:37;96193.31;;;22.45;45.71
31357;BME280;60001;48.404;11.738;2023-07-20T06:45:09;96193.47;;;22.49;45.91
31357;BME280;60001;48.404;11.738;2023-07-20T06:46:41;96192.00;;;22.51;45.74
31357;BME280;60001;48.404;11.738;2023-07-20T06:48:12;96203.25;;;22.53;45.84
31357;BME280;60001;48.404;11.738;2023-07-20T06:49:44;96197.84;;;22.53;45.09
31357;BME280;60001;48.404;11.738;2023-07-20T06:51:15;96191.81;;;22.56;45.25
31357;BME280;60001;48.404;11.738;2023-07-20T06:52:48;96193.16;;;22.62;44.92
31357;BME280;60001;48.404;11.738;2023-07-20T06:54:20;96194.06;;;22.66;45.33
31357;BME280;60001;48.404;11.738;2023-07-20T06:55:51;96192.50;;;22.65;44.94
31357;BME280;60001;48.404;11.738;2023-07-20T06:57:22;96192.97;;;22.67;44.57
31357;BME280;60001;48.404;11.738;2023-07-20T06:58:54;96199.44;;;22.66;44.77
31357;BME280;60001;48.404;11.738;2023-07-20T07:00:25;96201.16;;;22.71;45.17
31357;BME280;60001;48.404;11.738;2023-07-20T07:01:56;96196.13;;;22.69;44.94
31357;BME280;60001;48.404;11.738;2023-07-20T07:03:28;96198.03;;;22.69;44.33
31357;BME280;60001;48.404;11.738;2023-07-20T07:05:01;96198.03;;;22.69;44.61
31357;BME280;60001;48.404;11.738;2023-07-20T07:06:31;96199.94;;;22.68;44.64
31357;BME280;60001;48.404;11.738;2023-07-20T07:08:05;96191.06;;;22.68;45.27
31357;BME280;60001;48.404;11.738;2023-07-20T07:09:36;96197.69;;;22.70;45.56
31357;BME280;60001;48.404;11.738;2023-07-20T07:11:08;96196.91;;;22.70;44.33
31357;BME280;60001;48.404;11.738;2023-07-20T07:12:39;96193.41;;;22.69;44.66
31357;BME280;60001;48.404;11.738;2023-07-20T07:14:12;96204.97;;;22.70;44.73
31357;BME280;60001;48.404;11.738;2023-07-20T07:15:42;96193.53;;;22.73;45.01
31357;BME280;60001;48.404;11.738;2023-07-20T07:17:14;96202.97;;;22.79;46.09
31357;BME280;60001;48.404;11.738;2023-07-20T07:18:45;96201.84;;;22.80;44.83
31357;BME280;60001;48.404;11.738;2023-07-20T07:20:17;96201.53;;;22.82;43.83
31357;BME280;60001;48.404;11.738;2023-07-20T07:21:48;96201.84;;;22.80;43.70
31357;BME280;60001;48.404;11.738;2023-07-20T07:23:21;96201.53;;;22.82;44.15
31357;BME280;60001;48.404;11.738;2023-07-20T07:24:53;96201.97;;;22.84;44.08
31357;BME280;60001;48.404;11.738;2023-07-20T07:26:24;96198.38;;;22.80;43.49
31357;BME280;60001;48.404;11.738;2023-07-20T07:27:56;96202.31;;;22.82;43.55
31357;BME280;60001;48.404;11.738;2023-07-20T07:29:27;96205.81;;;22.83;42.92
31357;BME280;60001;48.404;11.738;2023-07-20T07:30:58;96201.53;;;22.82;43.26
31357;BME280;60001;48.404;11.738;2023-07-20T07:32:29;96201.03;;;22.88;43.58
31357;BME280;60001;48.404;11.738;2023-07-20T07:34:01;96195.66;;;22.88;42.91
31357;BME280;60001;48.404;11.738;2023-07-20T07:35:32;96191.69;;;22.86;42.90
31357;BME280;60001;48.404;11.738;2023-07-20T07:37:05;96196.88;;;22.91;42.66
31357;BME280;60001;48.404;11.738;2023-07-20T07:38:37;96197.56;;;22.88;42.43
31357;BME280;60001;48.404;11.738;2023-07-20T07:40:09;96207.19;;;22.89;43.05
31357;BME280;60001;48.404;11.738;2023-07-20T07:41:41;96201.56;;;22.94;44.25
31357;BME280;60001;48.404;11.738;2023-07-20T07:43:12;96201.38;;;22.99;43.38
31357;BME280;60001;48.404;11.738;2023-07-20T07:44:44;96187.56;;;23.01;42.45
31357;BME280;60001;48.404;11.738;2023-07-20T07:46:16;96203.97;;;22.95;40.32
31357;BME280;60001;48.404;11.738;2023-07-20T07:47:46;96201.56;;;22.94;40.76
31357;BME280;60001;48.404;11.738;2023-07-20T07:49:19;96200.00;;;22.93;41.18
31357;BME280;60001;48.404;11.738;2023-07-20T07:50:50;96207.88;;;22.98;41.93
31357;BME280;60001;48.404;11.738;2023-07-20T07:52:21;96208.47;;;23.04;42.20
31357;BME280;60001;48.404;11.738;2023-07-20T07:53:54;96209.25;;;23.04;40.64
31357;BME280;60001;48.404;11.738;2023-07-20T07:55:25;96210.81;;;23.05;41.00
31357;BME280;60001;48.404;11.738;2023-07-20T07:56:58;96203.97;;;23.08;41.41
31357;BME280;60001;48.404;11.738;2023-07-20T07:58:29;96190.59;;;22.99;41.77
31357;BME280;60001;48.404;11.738;2023-07-20T08:00:02;96210.06;;;23.17;42.31
31357;BME280;60001;48.404;11.738;2023-07-20T08:01:34;96211.28;;;23.19;42.10
31357;BME280;60001;48.404;11.738;2023-07-20T08:03:06;96215.22;;;23.22;42.32